createdAt,value
2019-01-28T00:00:35.055Z,16.30
2019-01-28T00:03:02.616Z,16.30
2019-01-28T00:05:31.069Z,16.30
2019-01-28T00:07:58.648Z,16.30
2019-01-28T00:10:26.064Z,16.30
2019-01-28T00:12:53.631Z,16.20
2019-01-28T00:15:21.255Z,16.20
2019-01-28T00:17:48.916Z,16.20
2019-01-28T00:20:16.636Z,16.20
2019-01-28T00:22:43.852Z,16.20
2019-01-28T00:25:11.477Z,16.20
2019-01-28T00:27:39.031Z,16.20
2019-01-28T00:30:06.656Z,16.20
2019-01-28T00:32:33.973Z,16.20
2019-01-28T00:35:01.443Z,16.20
2019-01-28T00:37:29.019Z,16.20
2019-01-28T00:39:56.576Z,16.20
2019-01-28T00:42:24.088Z,16.20
2019-01-28T00:44:51.541Z,16.20
2019-01-28T00:47:19.044Z,16.20
2019-01-28T00:49:46.508Z,16.10
2019-01-28T00:52:13.866Z,16.10
2019-01-28T00:54:41.419Z,16.10
2019-01-28T00:57:09.252Z,16.10
2019-01-28T00:59:36.765Z,16.10
2019-01-28T01:02:04.209Z,16.10
2019-01-28T01:04:31.749Z,16.10
2019-01-28T01:06:59.271Z,16.10
2019-01-28T01:09:26.889Z,16.10
2019-01-28T01:11:54.368Z,16.10
2019-01-28T01:14:21.972Z,16.10
2019-01-28T01:16:49.396Z,16.10
2019-01-28T01:19:17.031Z,16.10
2019-01-28T01:21:44.527Z,16.00
2019-01-28T01:24:11.868Z,16.10
2019-01-28T01:26:39.808Z,16.10
2019-01-28T01:29:07.393Z,16.10
2019-01-28T01:31:34.863Z,16.00
2019-01-28T01:34:02.503Z,16.10
2019-01-28T01:36:29.936Z,16.10
2019-01-28T01:38:57.380Z,16.10
2019-01-28T01:41:24.810Z,16.00
2019-01-28T01:43:52.335Z,16.00
2019-01-28T01:46:19.985Z,16.00
2019-01-28T01:48:48.833Z,16.10
2019-01-28T01:51:16.612Z,16.00
2019-01-28T01:53:44.135Z,16.00
2019-01-28T01:56:11.682Z,16.00
2019-01-28T01:58:39.373Z,16.00
2019-01-28T02:01:06.727Z,16.00
2019-01-28T02:03:34.292Z,16.00
2019-01-28T02:06:01.620Z,16.00
2019-01-28T02:08:29.327Z,16.00
2019-01-28T02:10:56.876Z,16.00
2019-01-28T02:13:24.457Z,16.00
2019-01-28T02:15:52.040Z,16.00
2019-01-28T02:18:19.579Z,16.00
2019-01-28T02:20:47.267Z,16.00
2019-01-28T02:23:14.831Z,16.00
2019-01-28T02:25:42.356Z,16.00
2019-01-28T02:28:09.920Z,16.00
2019-01-28T02:30:37.642Z,16.00
2019-01-28T02:33:05.076Z,16.00
2019-01-28T02:35:32.611Z,16.00
2019-01-28T02:38:00.936Z,16.00
2019-01-28T02:40:28.563Z,16.00
2019-01-28T02:42:57.175Z,16.00
2019-01-28T02:45:24.731Z,16.00
2019-01-28T02:47:52.164Z,16.00
2019-01-28T02:50:19.626Z,16.00
2019-01-28T02:52:47.071Z,16.00
2019-01-28T02:55:15.751Z,16.00
2019-01-28T02:57:43.299Z,16.00
2019-01-28T03:00:19.040Z,16.00
2019-01-28T03:02:46.435Z,15.90
2019-01-28T03:05:14.145Z,15.90
2019-01-28T03:07:41.672Z,15.90
2019-01-28T03:10:12.212Z,16.00
2019-01-28T03:12:40.313Z,15.90
2019-01-28T03:15:08.232Z,16.00
2019-01-28T03:17:35.759Z,15.90
2019-01-28T03:20:04.670Z,16.00
2019-01-28T03:22:32.078Z,15.90
2019-01-28T03:24:59.585Z,16.00
2019-01-28T03:27:26.912Z,15.90
2019-01-28T03:29:54.409Z,16.00
2019-01-28T03:32:21.978Z,15.90
2019-01-28T03:34:49.212Z,16.00
2019-01-28T03:37:16.818Z,16.00
2019-01-28T03:39:44.144Z,15.90
2019-01-28T03:42:11.400Z,16.00
2019-01-28T03:44:39.234Z,15.90
2019-01-28T03:47:06.799Z,15.90
2019-01-28T03:49:34.092Z,15.90
2019-01-28T03:52:01.776Z,15.90
2019-01-28T03:54:29.108Z,15.90
2019-01-28T03:56:56.484Z,15.90
2019-01-28T03:59:23.803Z,15.90
2019-01-28T04:01:51.350Z,15.90
2019-01-28T04:04:18.867Z,15.90
2019-01-28T04:06:46.373Z,15.90
2019-01-28T04:09:13.936Z,15.90
2019-01-28T04:11:41.259Z,15.90
2019-01-28T04:14:08.858Z,15.90
2019-01-28T04:16:36.312Z,15.90
2019-01-28T04:19:03.768Z,15.90
2019-01-28T04:21:31.416Z,15.90
2019-01-28T04:23:58.851Z,15.90
2019-01-28T04:26:26.167Z,15.90
2019-01-28T04:28:53.575Z,15.90
2019-01-28T04:31:20.977Z,15.90
2019-01-28T04:33:48.491Z,15.90
2019-01-28T04:36:15.920Z,15.90
2019-01-28T04:38:43.444Z,15.90
2019-01-28T04:41:10.895Z,15.90
2019-01-28T04:43:39.811Z,15.90
2019-01-28T04:46:08.397Z,15.90
2019-01-28T04:48:35.896Z,15.90
2019-01-28T04:51:03.415Z,15.90
2019-01-28T04:53:30.749Z,15.90
2019-01-28T04:55:58.208Z,15.90
2019-01-28T04:58:25.632Z,15.90
2019-01-28T05:00:53.069Z,15.90
2019-01-28T05:03:20.583Z,15.90
2019-01-28T05:05:47.883Z,15.90
2019-01-28T05:08:15.378Z,15.80
2019-01-28T05:10:42.903Z,15.90
2019-01-28T05:13:10.229Z,15.90
2019-01-28T05:15:39.143Z,15.90
2019-01-28T05:18:06.497Z,15.90
2019-01-28T05:20:33.772Z,15.90
2019-01-28T05:23:01.132Z,15.90
2019-01-28T05:25:28.647Z,15.90
2019-01-28T05:27:56.148Z,15.80
2019-01-28T05:30:23.583Z,15.90
2019-01-28T05:32:51.072Z,15.90
2019-01-28T05:35:18.883Z,15.80
2019-01-28T05:37:46.307Z,15.80
2019-01-28T05:40:17.099Z,15.80
2019-01-28T05:42:44.625Z,15.80
2019-01-28T05:45:12.963Z,15.80
2019-01-28T05:47:40.422Z,15.80
2019-01-28T05:50:08.249Z,15.80
2019-01-28T05:52:35.559Z,15.80
2019-01-28T05:55:03.252Z,15.80
2019-01-28T05:57:30.792Z,15.80
2019-01-28T05:59:58.265Z,15.80
2019-01-28T06:02:25.791Z,15.80
2019-01-28T06:04:54.235Z,15.80
2019-01-28T06:07:21.844Z,15.80
2019-01-28T06:09:49.676Z,15.80
2019-01-28T06:12:17.151Z,15.80
2019-01-28T06:14:44.451Z,15.80
2019-01-28T06:17:11.955Z,15.80
2019-01-28T06:19:39.552Z,15.80
2019-01-28T06:22:07.102Z,15.80
2019-01-28T06:24:34.420Z,15.80
2019-01-28T06:27:01.993Z,15.80
2019-01-28T06:29:30.450Z,15.80
2019-01-28T06:31:57.975Z,15.80
2019-01-28T06:34:25.299Z,15.80
2019-01-28T06:36:52.623Z,15.80
2019-01-28T06:39:20.032Z,15.80
2019-01-28T06:41:47.336Z,15.80
2019-01-28T06:44:14.815Z,15.80
2019-01-28T06:46:42.363Z,15.80
2019-01-28T06:49:09.765Z,15.80
2019-01-28T06:51:37.096Z,15.80
2019-01-28T06:54:04.738Z,15.80
2019-01-28T06:56:32.079Z,15.80
2019-01-28T06:58:59.401Z,15.80
2019-01-28T07:01:26.906Z,15.80
2019-01-28T07:03:54.212Z,15.80
2019-01-28T07:06:21.694Z,15.80
2019-01-28T07:08:49.284Z,15.80
2019-01-28T07:11:18.037Z,15.80
2019-01-28T07:13:46.766Z,15.80
2019-01-28T07:16:14.485Z,15.80
2019-01-28T07:18:41.944Z,15.80
2019-01-28T07:21:09.498Z,15.80
2019-01-28T07:23:37.156Z,15.80
2019-01-28T07:26:04.973Z,15.80
2019-01-28T07:28:34.819Z,15.80
2019-01-28T07:31:02.273Z,15.70
2019-01-28T07:33:29.795Z,15.80
2019-01-28T07:35:57.401Z,15.80
2019-01-28T07:38:24.972Z,15.80
2019-01-28T07:40:52.395Z,15.80
2019-01-28T07:43:19.815Z,15.80
2019-01-28T07:45:47.176Z,15.80
2019-01-28T07:48:14.891Z,15.80
2019-01-28T07:50:42.445Z,15.80
2019-01-28T07:53:10.029Z,15.70
2019-01-28T07:55:37.770Z,15.80
2019-01-28T07:58:05.321Z,15.70
2019-01-28T08:00:32.637Z,15.80
2019-01-28T08:03:00.164Z,15.80
2019-01-28T08:05:27.603Z,15.80
2019-01-28T08:07:55.051Z,15.80
2019-01-28T08:10:22.353Z,15.80
2019-01-28T08:12:49.827Z,15.70
2019-01-28T08:15:18.555Z,15.80
2019-01-28T08:17:46.526Z,15.80
2019-01-28T08:20:15.216Z,15.80
2019-01-28T08:22:42.571Z,15.80
2019-01-28T08:25:11.403Z,15.70
2019-01-28T08:27:39.103Z,15.80
2019-01-28T08:30:10.383Z,15.70
2019-01-28T08:32:38.500Z,15.80
2019-01-28T08:35:06.268Z,15.70
2019-01-28T08:37:33.779Z,15.70
2019-01-28T08:40:01.443Z,15.80
2019-01-28T08:42:28.823Z,15.70
2019-01-28T08:44:56.498Z,15.70
2019-01-28T08:47:23.933Z,15.70
2019-01-28T08:49:51.757Z,15.80
2019-01-28T08:52:19.209Z,15.70
2019-01-28T08:54:46.860Z,15.70
2019-01-28T08:57:14.448Z,15.70
2019-01-28T08:59:42.026Z,15.70
2019-01-28T09:02:09.555Z,15.70
2019-01-28T09:04:37.028Z,15.70
2019-01-28T09:07:04.625Z,15.70
2019-01-28T09:09:32.159Z,15.70
2019-01-28T09:11:59.631Z,15.70
2019-01-28T09:14:26.975Z,15.70
2019-01-28T09:16:54.579Z,15.70
2019-01-28T09:19:22.120Z,15.70
2019-01-28T09:21:49.713Z,15.70
2019-01-28T09:24:17.363Z,15.70
2019-01-28T09:26:44.663Z,15.70
2019-01-28T09:29:12.143Z,15.70
2019-01-28T09:31:39.910Z,15.70
2019-01-28T09:34:07.288Z,15.70
2019-01-28T09:36:34.871Z,15.70
2019-01-28T09:39:04.941Z,15.70
2019-01-28T09:41:35.583Z,15.70
2019-01-28T09:44:02.421Z,15.70
2019-01-28T09:46:30.143Z,15.70
2019-01-28T09:48:57.480Z,15.70
2019-01-28T09:51:24.825Z,15.70
2019-01-28T09:53:52.289Z,15.70
2019-01-28T09:56:19.580Z,15.70
2019-01-28T09:58:46.943Z,15.70
2019-01-28T10:01:14.346Z,15.70
2019-01-28T10:03:41.663Z,15.70
2019-01-28T10:06:09.124Z,15.70
2019-01-28T10:08:36.854Z,15.70
2019-01-28T10:11:04.336Z,15.70
2019-01-28T10:13:32.012Z,15.70
2019-01-28T10:16:00.436Z,15.70
2019-01-28T10:18:28.214Z,15.70
2019-01-28T10:20:55.930Z,15.70
2019-01-28T10:23:23.815Z,15.70
2019-01-28T10:25:51.439Z,15.70
2019-01-28T10:28:18.978Z,15.70
2019-01-28T10:30:47.040Z,15.70
2019-01-28T10:33:15.657Z,15.70
2019-01-28T10:35:44.678Z,15.70
2019-01-28T10:38:12.343Z,15.70
2019-01-28T10:40:40.119Z,15.70
2019-01-28T10:43:08.636Z,15.70
2019-01-28T10:45:36.263Z,15.70
2019-01-28T10:48:04.519Z,15.70
2019-01-28T10:50:32.037Z,15.60
2019-01-28T10:52:59.585Z,15.70
2019-01-28T10:55:28.323Z,15.70
2019-01-28T10:58:02.531Z,15.70
2019-01-28T11:00:38.853Z,15.70
2019-01-28T11:03:07.128Z,15.70
2019-01-28T11:05:34.520Z,15.70
2019-01-28T11:08:01.746Z,15.70
2019-01-28T11:10:29.342Z,15.70
2019-01-28T11:12:58.681Z,15.60
2019-01-28T11:15:27.497Z,15.70
2019-01-28T11:17:55.564Z,15.60
2019-01-28T11:20:23.505Z,15.60
2019-01-28T11:22:51.029Z,15.60
2019-01-28T11:25:20.885Z,15.70
2019-01-28T11:27:48.428Z,15.60
2019-01-28T11:30:18.698Z,15.70
2019-01-28T11:32:46.223Z,15.60
2019-01-28T11:35:13.739Z,15.60
2019-01-28T11:37:41.796Z,15.60
2019-01-28T11:40:10.861Z,15.60
2019-01-28T11:42:41.426Z,15.60
2019-01-28T11:45:15.885Z,15.60
2019-01-28T11:47:43.264Z,15.60
2019-01-28T11:50:10.823Z,15.60
2019-01-28T11:52:38.493Z,15.60
2019-01-28T11:55:05.973Z,15.60
2019-01-28T11:57:33.439Z,15.60
2019-01-28T12:00:01.167Z,15.60
2019-01-28T12:02:34.292Z,15.60
2019-01-28T12:04:57.819Z,15.60
2019-01-28T12:07:25.331Z,15.60
2019-01-28T12:09:52.728Z,15.60
2019-01-28T12:12:20.468Z,15.60
2019-01-28T12:14:48.019Z,15.60
2019-01-28T12:17:17.346Z,15.60
2019-01-28T12:19:45.196Z,15.60
2019-01-28T12:22:13.288Z,15.60
2019-01-28T12:24:41.133Z,15.60
2019-01-28T12:27:10.195Z,15.60
2019-01-28T12:29:41.016Z,15.60
2019-01-28T12:32:10.582Z,15.60
2019-01-28T12:34:39.661Z,15.60
2019-01-28T12:37:07.330Z,15.60
2019-01-28T12:39:34.978Z,15.60
2019-01-28T12:42:02.501Z,15.60
2019-01-28T12:44:30.532Z,15.60
2019-01-28T12:46:58.137Z,15.60
2019-01-28T12:49:25.691Z,15.60
2019-01-28T12:51:53.608Z,15.60
2019-01-28T12:54:21.296Z,15.60
2019-01-28T12:56:48.774Z,15.60
2019-01-28T12:59:16.373Z,15.60
2019-01-28T13:01:43.951Z,15.60
2019-01-28T13:04:11.388Z,15.60
2019-01-28T13:06:39.104Z,15.60
2019-01-28T13:09:07.619Z,15.60
2019-01-28T13:11:35.311Z,15.60
2019-01-28T13:14:02.971Z,15.60
2019-01-28T13:16:30.317Z,15.60
2019-01-28T13:18:57.736Z,15.60
2019-01-28T13:21:25.316Z,15.60
2019-01-28T13:23:52.851Z,15.60
2019-01-28T13:26:20.471Z,15.60
2019-01-28T13:28:47.826Z,15.60
2019-01-28T13:31:15.128Z,15.60
2019-01-28T13:33:42.816Z,15.60
2019-01-28T13:36:10.358Z,15.60
2019-01-28T13:38:38.046Z,15.60
2019-01-28T13:41:05.592Z,15.60
2019-01-28T13:43:33.070Z,15.60
2019-01-28T13:46:00.580Z,15.60
2019-01-28T13:48:28.100Z,15.60
2019-01-28T13:50:55.556Z,15.60
2019-01-28T13:53:23.095Z,15.60
2019-01-28T13:55:51.004Z,15.60
2019-01-28T13:58:19.976Z,15.60
2019-01-28T14:00:48.041Z,15.50
2019-01-28T14:03:15.601Z,15.60
2019-01-28T14:05:43.151Z,15.50
2019-01-28T14:08:10.677Z,15.50
2019-01-28T14:10:39.741Z,15.50
2019-01-28T14:13:07.273Z,15.60
2019-01-28T14:15:37.807Z,15.60
2019-01-28T14:18:06.980Z,15.50
2019-01-28T14:20:35.428Z,15.50
2019-01-28T14:23:03.244Z,15.60
2019-01-28T14:25:31.861Z,15.70
2019-01-28T14:27:59.648Z,15.70
2019-01-28T14:30:39.143Z,15.70
2019-01-28T14:33:07.172Z,15.80
2019-01-28T14:35:39.624Z,15.80
2019-01-28T14:38:09.702Z,15.90
2019-01-28T14:40:37.977Z,15.90
2019-01-28T14:43:06.518Z,15.90
2019-01-28T14:45:35.036Z,15.90
2019-01-28T14:48:02.508Z,16.00
2019-01-28T14:50:30.852Z,16.00
2019-01-28T14:52:58.779Z,15.90
2019-01-28T14:55:26.979Z,16.00
2019-01-28T14:57:54.196Z,16.00
2019-01-28T15:00:27.017Z,16.00
2019-01-28T15:02:54.550Z,16.00
2019-01-28T15:05:23.111Z,16.00
2019-01-28T15:07:51.124Z,16.00
2019-01-28T15:10:20.245Z,16.00
2019-01-28T15:12:48.755Z,16.00
2019-01-28T15:15:18.636Z,16.00
2019-01-28T15:17:46.157Z,16.00
2019-01-28T15:20:13.457Z,16.10
2019-01-28T15:22:40.755Z,16.10
2019-01-28T15:25:09.514Z,16.10
2019-01-28T15:27:37.023Z,16.10
2019-01-28T15:30:09.866Z,16.10
2019-01-28T15:32:42.128Z,16.10
2019-01-28T15:35:11.321Z,16.10
2019-01-28T15:37:39.369Z,16.10
2019-01-28T15:40:07.819Z,16.10
2019-01-28T15:42:35.241Z,16.10
2019-01-28T15:45:11.248Z,16.10
2019-01-28T15:47:34.550Z,16.20
2019-01-28T15:50:10.374Z,16.20
2019-01-28T15:52:31.717Z,16.20
2019-01-28T15:54:59.083Z,16.20
2019-01-28T15:57:26.680Z,16.20
2019-01-28T15:59:54.027Z,16.20
2019-01-28T16:02:22.586Z,16.20
2019-01-28T16:04:49.997Z,16.20
2019-01-28T16:07:17.572Z,16.20
2019-01-28T16:09:45.208Z,16.20
2019-01-28T16:12:13.236Z,16.20
2019-01-28T16:14:40.796Z,16.20
2019-01-28T16:17:09.028Z,16.20
2019-01-28T16:19:37.732Z,16.20
2019-01-28T16:22:05.463Z,16.30
2019-01-28T16:24:33.183Z,16.20
2019-01-28T16:27:00.626Z,16.20
2019-01-28T16:29:28.272Z,16.20
2019-01-28T16:31:55.969Z,16.20
2019-01-28T16:34:23.660Z,16.30
2019-01-28T16:36:51.161Z,16.20
2019-01-28T16:39:18.573Z,16.30
2019-01-28T16:41:46.056Z,16.30
2019-01-28T16:44:13.533Z,16.30
2019-01-28T16:46:42.903Z,16.30
2019-01-28T16:49:10.367Z,16.30
2019-01-28T16:51:39.552Z,16.30
2019-01-28T16:54:08.897Z,16.30
2019-01-28T16:56:38.198Z,16.30
2019-01-28T16:59:05.879Z,16.30
2019-01-28T17:01:34.993Z,16.30
2019-01-28T17:04:02.661Z,16.30
2019-01-28T17:06:33.318Z,16.30
2019-01-28T17:09:03.839Z,16.30
2019-01-28T17:11:34.036Z,16.30
2019-01-28T17:14:04.297Z,16.30
2019-01-28T17:16:33.661Z,16.30
2019-01-28T17:19:04.223Z,16.30
2019-01-28T17:21:34.430Z,16.30
2019-01-28T17:24:02.968Z,16.30
2019-01-28T17:26:31.670Z,16.40
2019-01-28T17:28:59.247Z,16.40
2019-01-28T17:31:28.621Z,16.40
2019-01-28T17:33:57.616Z,16.40
2019-01-28T17:36:25.850Z,16.40
2019-01-28T17:38:53.385Z,16.40
2019-01-28T17:41:22.766Z,16.40
2019-01-28T17:43:51.904Z,16.40
2019-01-28T17:46:21.293Z,16.40
2019-01-28T17:48:52.636Z,16.40
2019-01-28T17:51:20.717Z,16.40
2019-01-28T17:53:50.832Z,16.40
2019-01-28T17:56:19.987Z,16.40
2019-01-28T17:58:49.550Z,16.40
2019-01-28T18:01:18.139Z,16.40
2019-01-28T18:03:47.152Z,16.40
2019-01-28T18:06:16.530Z,16.40
2019-01-28T18:08:44.239Z,16.40
2019-01-28T18:11:13.527Z,16.50
2019-01-28T18:13:42.622Z,16.40
2019-01-28T18:16:11.698Z,16.50
2019-01-28T18:18:43.754Z,16.50
2019-01-28T18:21:13.049Z,16.50
2019-01-28T18:23:53.185Z,16.50
2019-01-28T18:26:21.515Z,16.50
2019-01-28T18:28:48.867Z,16.50
2019-01-28T18:31:16.419Z,16.50
2019-01-28T18:33:45.813Z,16.40
2019-01-28T18:36:18.363Z,16.50
2019-01-28T18:38:46.449Z,16.50
2019-01-28T18:41:18.638Z,16.50
2019-01-28T18:43:47.333Z,16.50
2019-01-28T18:46:15.791Z,16.50
2019-01-28T18:48:43.375Z,16.50
2019-01-28T18:51:11.082Z,16.50
2019-01-28T18:53:38.865Z,16.50
2019-01-28T18:56:06.646Z,16.50
2019-01-28T18:58:34.006Z,16.50
2019-01-28T19:01:01.515Z,16.50
2019-01-28T19:03:28.872Z,16.50
2019-01-28T19:06:00.974Z,16.50
2019-01-28T19:08:46.308Z,16.50
2019-01-28T19:11:18.850Z,16.50
2019-01-28T19:14:02.771Z,16.50
2019-01-28T19:16:53.911Z,16.50
2019-01-28T19:19:49.064Z,16.50
2019-01-28T19:22:23.468Z,16.50
2019-01-28T19:24:50.989Z,16.50
2019-01-28T19:27:18.847Z,16.50
2019-01-28T19:29:46.681Z,16.50
2019-01-28T19:32:14.202Z,16.50
2019-01-28T19:34:41.761Z,16.40
2019-01-28T19:37:10.655Z,16.40
2019-01-28T19:39:40.975Z,16.40
2019-01-28T19:42:08.920Z,16.40
2019-01-28T19:44:36.585Z,16.40
2019-01-28T19:47:04.406Z,16.40
2019-01-28T19:49:32.654Z,16.40
2019-01-28T19:52:01.410Z,16.40
2019-01-28T19:54:30.726Z,16.30
2019-01-28T19:56:59.323Z,16.30
2019-01-28T19:59:27.425Z,16.30
2019-01-28T20:01:56.039Z,16.30
2019-01-28T20:04:24.359Z,16.30
2019-01-28T20:06:52.435Z,16.30
2019-01-28T20:09:20.913Z,16.30
2019-01-28T20:11:49.236Z,16.30
2019-01-28T20:14:18.101Z,16.30
2019-01-28T20:16:46.539Z,16.30
2019-01-28T20:19:15.271Z,16.20
2019-01-28T20:21:43.374Z,16.20
2019-01-28T20:24:11.833Z,16.20
2019-01-28T20:26:40.402Z,16.20
2019-01-28T20:29:08.326Z,16.20
2019-01-28T20:31:38.128Z,16.20
2019-01-28T20:34:07.659Z,16.20
2019-01-28T20:36:36.454Z,16.20
2019-01-28T20:39:08.140Z,16.20
2019-01-28T20:41:36.420Z,16.20
2019-01-28T20:44:05.255Z,16.20
2019-01-28T20:46:33.665Z,16.20
2019-01-28T20:49:02.079Z,16.20
2019-01-28T20:51:32.408Z,16.10
2019-01-28T20:54:03.031Z,16.20
2019-01-28T20:56:30.861Z,16.10
2019-01-28T20:59:00.289Z,16.10
2019-01-28T21:01:28.737Z,16.10
2019-01-28T21:03:57.209Z,16.10
2019-01-28T21:06:26.847Z,16.10
2019-01-28T21:08:55.350Z,16.10
2019-01-28T21:11:25.838Z,16.10
2019-01-28T21:13:53.431Z,16.10
2019-01-28T21:16:20.771Z,16.10
2019-01-28T21:18:48.289Z,16.10
2019-01-28T21:21:15.829Z,16.10
2019-01-28T21:23:43.233Z,16.10
2019-01-28T21:26:10.689Z,16.10
2019-01-28T21:28:39.463Z,16.10
2019-01-28T21:31:07.031Z,16.10
2019-01-28T21:33:34.465Z,16.10
2019-01-28T21:36:24.300Z,16.10
2019-01-28T21:38:52.586Z,16.00
2019-01-28T21:41:20.180Z,16.00
2019-01-28T21:43:47.719Z,16.00
2019-01-28T21:46:15.433Z,16.00
2019-01-28T21:48:42.998Z,16.00
2019-01-28T21:51:10.558Z,16.00
2019-01-28T21:53:39.230Z,16.00
2019-01-28T21:56:06.665Z,16.00
2019-01-28T21:58:34.063Z,16.00
2019-01-28T22:01:01.604Z,16.00
2019-01-28T22:03:30.454Z,16.00
2019-01-28T22:05:57.681Z,16.00
2019-01-28T22:08:25.252Z,16.00
2019-01-28T22:10:52.714Z,16.00
2019-01-28T22:13:20.477Z,16.00
2019-01-28T22:15:48.081Z,16.00
2019-01-28T22:18:15.750Z,16.00
2019-01-28T22:20:43.234Z,16.00
2019-01-28T22:23:10.704Z,16.00
2019-01-28T22:25:38.420Z,16.00
2019-01-28T22:28:05.998Z,15.90
2019-01-28T22:30:33.626Z,16.00
2019-01-28T22:33:01.164Z,16.00
2019-01-28T22:35:28.938Z,16.00
2019-01-28T22:37:56.606Z,15.90
2019-01-28T22:40:24.111Z,15.90
2019-01-28T22:42:51.676Z,16.00
2019-01-28T22:45:19.245Z,15.90
2019-01-28T22:47:46.727Z,15.90
2019-01-28T22:50:15.427Z,15.90
2019-01-28T22:52:42.909Z,15.90
2019-01-28T22:55:11.460Z,15.90
2019-01-28T22:57:39.504Z,15.90
2019-01-28T23:00:43.824Z,15.90
2019-01-28T23:03:11.360Z,16.00
2019-01-28T23:05:39.085Z,15.90
2019-01-28T23:08:06.396Z,15.90
2019-01-28T23:10:33.811Z,15.90
2019-01-28T23:13:01.360Z,15.90
2019-01-28T23:15:28.811Z,15.90
2019-01-28T23:17:56.241Z,15.90
2019-01-28T23:20:23.820Z,15.90
2019-01-28T23:22:51.356Z,15.90
2019-01-28T23:25:18.702Z,15.90
2019-01-28T23:27:46.677Z,15.90
2019-01-28T23:30:14.300Z,15.90
2019-01-28T23:32:41.962Z,15.90
2019-01-28T23:35:09.555Z,15.90
2019-01-28T23:37:37.181Z,15.90
2019-01-28T23:40:04.884Z,15.90
2019-01-28T23:42:32.469Z,15.90
2019-01-28T23:45:00.046Z,15.90
2019-01-28T23:47:27.391Z,15.90
2019-01-28T23:49:54.734Z,15.90
2019-01-28T23:52:25.066Z,15.90
2019-01-28T23:54:52.578Z,15.90
2019-01-28T23:57:20.032Z,15.90
2019-01-28T23:59:49.043Z,15.90
